createdAt,value
2019-04-16T00:01:37.774Z,98465.36
2019-04-16T00:04:32.524Z,98466.09
2019-04-16T00:07:31.710Z,98458.98
2019-04-16T00:10:10.388Z,98458.73
2019-04-16T00:13:02.345Z,98454.52
2019-04-16T00:15:36.070Z,98455.22
2019-04-16T00:18:09.897Z,98444.84
2019-04-16T00:20:56.155Z,98439.65
2019-04-16T00:23:46.700Z,98438.34
2019-04-16T00:26:20.074Z,98442.52
2019-04-16T00:28:53.480Z,98437.58
2019-04-16T00:31:27.400Z,98437.63
2019-04-16T00:34:00.495Z,98431.55
2019-04-16T00:36:33.499Z,98432.16
2019-04-16T00:39:08.386Z,98432.44
2019-04-16T00:41:42.047Z,98424.30
2019-04-16T00:44:16.089Z,98436.31
2019-04-16T00:46:49.443Z,98438.34
2019-04-16T00:49:26.337Z,98435.75
2019-04-16T00:51:56.841Z,98432.38
2019-04-16T00:54:30.091Z,98433.08
2019-04-16T00:57:01.349Z,98440.11
2019-04-16T00:59:34.043Z,98429.61
2019-04-16T01:02:07.114Z,98430.38
2019-04-16T01:04:40.507Z,98424.89
2019-04-16T01:07:13.813Z,98429.71
2019-04-16T01:09:47.277Z,98427.30
2019-04-16T01:12:20.332Z,98423.15
2019-04-16T01:14:53.023Z,98425.91
2019-04-16T01:17:26.386Z,98434.70
2019-04-16T01:20:01.389Z,98435.45
2019-04-16T01:22:37.592Z,98438.00
2019-04-16T01:25:10.335Z,98440.88
2019-04-16T01:27:49.623Z,98438.50
2019-04-16T01:30:36.628Z,98435.25
2019-04-16T01:33:24.872Z,98439.55
2019-04-16T01:36:10.317Z,98443.08
2019-04-16T01:38:49.952Z,98447.77
2019-04-16T01:41:23.021Z,98446.58
2019-04-16T01:43:57.093Z,98443.33
2019-04-16T01:46:32.794Z,98448.20
2019-04-16T01:49:09.762Z,98447.79
2019-04-16T01:51:44.629Z,98445.31
2019-04-16T01:54:22.527Z,98442.90
2019-04-16T01:57:01.145Z,98443.95
2019-04-16T01:59:36.455Z,98447.04
2019-04-16T02:02:14.560Z,98445.47
2019-04-16T02:04:51.860Z,98441.75
2019-04-16T02:07:27.724Z,98443.80
2019-04-16T02:10:00.707Z,98442.82
2019-04-16T02:12:34.813Z,98438.75
2019-04-16T02:15:09.594Z,98438.15
2019-04-16T02:17:42.960Z,98444.52
2019-04-16T02:20:16.072Z,98443.91
2019-04-16T02:22:49.290Z,98440.78
2019-04-16T02:25:23.135Z,98447.67
2019-04-16T02:27:57.655Z,98445.28
2019-04-16T02:30:37.594Z,98444.17
2019-04-16T02:33:11.243Z,98441.72
2019-04-16T02:35:44.364Z,98444.04
2019-04-16T02:38:17.928Z,98439.00
2019-04-16T02:40:52.957Z,98444.63
2019-04-16T02:43:23.937Z,98439.41
2019-04-16T02:45:58.829Z,98443.05
2019-04-16T02:48:33.954Z,98450.66
2019-04-16T02:51:16.977Z,98454.01
2019-04-16T02:54:00.005Z,98453.72
2019-04-16T02:57:04.825Z,98445.98
2019-04-16T02:59:45.692Z,98448.72
2019-04-16T03:02:38.864Z,98446.00
2019-04-16T03:05:31.474Z,98450.48
2019-04-16T03:08:05.848Z,98449.20
2019-04-16T03:10:56.274Z,98445.44
2019-04-16T03:13:29.893Z,98448.05
2019-04-16T03:16:22.737Z,98450.69
2019-04-16T03:19:00.787Z,98451.55
2019-04-16T03:21:33.613Z,98457.05
2019-04-16T03:24:09.104Z,98457.25
2019-04-16T03:26:47.508Z,98452.11
2019-04-16T03:29:18.631Z,98447.73
2019-04-16T03:31:58.041Z,98450.27
2019-04-16T03:34:28.938Z,98447.08
2019-04-16T03:37:03.081Z,98445.10
2019-04-16T03:39:36.671Z,98442.67
2019-04-16T03:42:09.662Z,98439.50
2019-04-16T03:44:42.692Z,98437.63
2019-04-16T03:47:19.137Z,98441.94
2019-04-16T03:49:50.504Z,98441.94
2019-04-16T03:52:23.257Z,98438.93
2019-04-16T03:54:56.056Z,98441.38
2019-04-16T03:57:32.647Z,98440.80
2019-04-16T04:00:12.276Z,98443.61
2019-04-16T04:02:44.445Z,98435.03
2019-04-16T04:05:17.308Z,98437.84
2019-04-16T04:07:50.735Z,98438.77
2019-04-16T04:10:30.742Z,98435.22
2019-04-16T04:13:04.743Z,98432.02
2019-04-16T04:15:35.981Z,98438.75
2019-04-16T04:18:11.671Z,98437.44
2019-04-16T04:20:49.642Z,98446.98
2019-04-16T04:23:19.245Z,98445.02
2019-04-16T04:25:52.701Z,98445.38
2019-04-16T04:28:25.811Z,98447.08
2019-04-16T04:31:00.971Z,98449.42
2019-04-16T04:33:43.105Z,98455.50
2019-04-16T04:36:19.577Z,98453.25
2019-04-16T04:38:51.807Z,98455.93
2019-04-16T04:41:24.945Z,98456.59
2019-04-16T04:44:03.893Z,98454.52
2019-04-16T04:46:33.722Z,98462.65
2019-04-16T04:49:06.253Z,98465.26
2019-04-16T04:51:42.678Z,98472.74
2019-04-16T04:54:14.942Z,98469.95
2019-04-16T04:56:48.039Z,98469.01
2019-04-16T04:59:20.821Z,98481.63
2019-04-16T05:01:53.577Z,98479.02
2019-04-16T05:04:45.266Z,98471.84
2019-04-16T05:07:18.332Z,98476.31
2019-04-16T05:09:50.168Z,98474.37
2019-04-16T05:12:22.838Z,98480.14
2019-04-16T05:14:58.450Z,98478.02
2019-04-16T05:17:31.713Z,98474.09
2019-04-16T05:20:03.993Z,98485.95
2019-04-16T05:22:36.765Z,98482.13
2019-04-16T05:25:10.543Z,98481.39
2019-04-16T05:27:43.881Z,98475.11
2019-04-16T05:30:20.437Z,98481.77
2019-04-16T05:32:50.226Z,98486.70
2019-04-16T05:35:23.706Z,98490.91
2019-04-16T05:37:56.901Z,98482.77
2019-04-16T05:40:34.242Z,98486.55
2019-04-16T05:43:04.725Z,98481.23
2019-04-16T05:45:37.944Z,98488.70
2019-04-16T05:48:11.340Z,98484.17
2019-04-16T05:50:45.712Z,98485.98
2019-04-16T05:53:18.801Z,98491.69
2019-04-16T05:56:06.540Z,98491.39
2019-04-16T05:58:39.422Z,98488.80
2019-04-16T06:01:31.070Z,98489.75
2019-04-16T06:04:18.811Z,98488.50
2019-04-16T06:07:12.049Z,98481.64
2019-04-16T06:09:45.340Z,98487.96
2019-04-16T06:12:19.055Z,98481.00
2019-04-16T06:15:00.631Z,98477.86
2019-04-16T06:18:05.434Z,98476.59
2019-04-16T06:20:52.534Z,98471.95
2019-04-16T06:23:48.138Z,98471.84
2019-04-16T06:26:54.055Z,98472.47
2019-04-16T06:29:36.926Z,98473.78
2019-04-16T06:32:33.362Z,98473.27
2019-04-16T06:35:43.034Z,98469.79
2019-04-16T06:38:34.870Z,98474.33
2019-04-16T06:41:41.624Z,98471.77
2019-04-16T06:44:13.019Z,98471.68
2019-04-16T06:46:58.091Z,98475.89
2019-04-16T06:49:56.285Z,98464.55
2019-04-16T06:52:48.929Z,98468.11
2019-04-16T06:55:42.850Z,98471.42
2019-04-16T06:58:20.495Z,98458.69
2019-04-16T07:01:12.697Z,98456.25
2019-04-16T07:04:00.948Z,98454.08
2019-04-16T07:07:08.055Z,98446.73
2019-04-16T07:10:11.087Z,98453.31
2019-04-16T07:12:45.283Z,98455.80
2019-04-16T07:15:24.082Z,98446.84
2019-04-16T07:17:55.934Z,98445.94
2019-04-16T07:20:29.416Z,98447.69
2019-04-16T07:23:01.231Z,98444.17
2019-04-16T07:25:39.977Z,98441.64
2019-04-16T07:28:34.847Z,98442.48
2019-04-16T07:31:32.871Z,98441.52
2019-04-16T07:34:18.663Z,98444.79
2019-04-16T07:37:22.593Z,98438.30
2019-04-16T07:40:33.542Z,98439.34
2019-04-16T07:43:25.060Z,98443.30
2019-04-16T07:46:25.899Z,98447.11
2019-04-16T07:49:11.309Z,98443.41
2019-04-16T07:51:55.157Z,98434.84
2019-04-16T07:55:00.362Z,98434.22
2019-04-16T07:57:33.127Z,98431.76
2019-04-16T08:00:09.496Z,98425.98
2019-04-16T08:02:41.822Z,98426.37
2019-04-16T08:05:13.803Z,98431.20
2019-04-16T08:07:49.740Z,98428.22
2019-04-16T08:10:22.919Z,98428.38
2019-04-16T08:13:09.500Z,98433.42
2019-04-16T08:15:42.322Z,98430.02
2019-04-16T08:18:15.356Z,98433.20
2019-04-16T08:21:00.298Z,98424.49
2019-04-16T08:23:34.449Z,98423.20
2019-04-16T08:26:13.308Z,98422.86
2019-04-16T08:28:44.189Z,98430.51
2019-04-16T08:31:20.857Z,98422.99
2019-04-16T08:33:54.107Z,98430.87
2019-04-16T08:36:27.309Z,98433.94
2019-04-16T08:39:05.896Z,98432.23
2019-04-16T08:41:36.414Z,98431.83
2019-04-16T08:44:10.667Z,98431.42
2019-04-16T08:46:44.763Z,98432.50
2019-04-16T08:49:22.102Z,98432.08
2019-04-16T08:51:54.581Z,98423.67
2019-04-16T08:54:28.434Z,98424.20
2019-04-16T08:57:01.170Z,98421.41
2019-04-16T08:59:34.593Z,98420.63
2019-04-16T09:02:07.664Z,98421.11
2019-04-16T09:04:41.096Z,98420.57
2019-04-16T09:07:33.204Z,98418.50
2019-04-16T09:10:17.653Z,98414.41
2019-04-16T09:12:50.817Z,98420.86
2019-04-16T09:15:30.878Z,98413.33
2019-04-16T09:18:37.962Z,98410.34
2019-04-16T09:21:11.797Z,98401.05
2019-04-16T09:24:08.576Z,98392.84
2019-04-16T09:27:00.413Z,98398.20
2019-04-16T09:29:51.226Z,98395.66
2019-04-16T09:32:44.693Z,98390.56
2019-04-16T09:35:23.860Z,98395.48
2019-04-16T09:38:12.989Z,98386.98
2019-04-16T09:41:04.618Z,98377.03
2019-04-16T09:43:41.688Z,98371.23
2019-04-16T09:46:21.062Z,98372.41
2019-04-16T09:48:50.293Z,98379.16
2019-04-16T09:51:25.337Z,98378.53
2019-04-16T09:53:58.418Z,98370.13
2019-04-16T09:56:32.259Z,98362.46
2019-04-16T09:59:10.978Z,98368.53
2019-04-16T10:01:50.833Z,98366.80
2019-04-16T10:04:23.997Z,98362.42
2019-04-16T10:06:56.754Z,98372.48
2019-04-16T10:09:27.737Z,98366.77
2019-04-16T10:12:00.434Z,98372.44
2019-04-16T10:14:33.481Z,98364.67
2019-04-16T10:17:07.757Z,98373.88
2019-04-16T10:19:43.399Z,98367.88
2019-04-16T10:22:15.807Z,98367.55
2019-04-16T10:25:16.659Z,98361.22
2019-04-16T10:27:54.079Z,98360.31
2019-04-16T10:30:55.360Z,98358.03
2019-04-16T10:33:29.057Z,98350.73
2019-04-16T10:36:06.161Z,98347.11
2019-04-16T10:38:58.729Z,98344.66
2019-04-16T10:41:39.576Z,98353.16
2019-04-16T10:44:43.867Z,98343.00
2019-04-16T10:47:44.599Z,98341.09
2019-04-16T10:50:34.034Z,98333.56
2019-04-16T10:53:20.943Z,98341.53
2019-04-16T10:56:12.628Z,98336.09
2019-04-16T10:59:05.819Z,98334.71
2019-04-16T11:01:55.152Z,98335.29
2019-04-16T11:04:45.981Z,98331.60
2019-04-16T11:07:23.183Z,98336.06
2019-04-16T11:09:57.652Z,98334.34
2019-04-16T11:12:31.392Z,98334.91
2019-04-16T11:15:05.697Z,98332.83
2019-04-16T11:17:39.050Z,98331.66
2019-04-16T11:20:12.858Z,98334.68
2019-04-16T11:22:45.287Z,98319.32
2019-04-16T11:25:18.091Z,98316.31
2019-04-16T11:27:51.053Z,98316.26
2019-04-16T11:30:49.399Z,98311.83
2019-04-16T11:33:22.713Z,98315.49
2019-04-16T11:35:55.762Z,98309.53
2019-04-16T11:38:27.938Z,98316.34
2019-04-16T11:40:59.304Z,98321.20
2019-04-16T11:43:31.827Z,98323.77
2019-04-16T11:46:04.432Z,98321.63
2019-04-16T11:48:38.171Z,98313.83
2019-04-16T11:51:11.465Z,98318.69
2019-04-16T11:53:44.524Z,98308.64
2019-04-16T11:56:17.939Z,98310.44
2019-04-16T11:58:51.733Z,98307.67
2019-04-16T12:01:34.615Z,98308.20
2019-04-16T12:04:26.106Z,98301.42
2019-04-16T12:07:09.118Z,98307.30
2019-04-16T12:10:10.188Z,98290.98
2019-04-16T12:12:56.300Z,98291.20
2019-04-16T12:15:44.476Z,98288.72
2019-04-16T12:18:33.828Z,98287.67
2019-04-16T12:21:10.215Z,98293.92
2019-04-16T12:23:53.289Z,98291.61
2019-04-16T12:27:03.291Z,98283.75
2019-04-16T12:29:47.512Z,98282.09
2019-04-16T12:32:39.433Z,98282.67
2019-04-16T12:35:19.927Z,98286.36
2019-04-16T12:38:26.797Z,98283.38
2019-04-16T12:41:20.892Z,98287.02
2019-04-16T12:44:23.946Z,98281.81
2019-04-16T12:47:14.578Z,98276.42
2019-04-16T12:50:01.253Z,98281.86
2019-04-16T12:52:45.640Z,98280.05
2019-04-16T12:55:55.621Z,98268.91
2019-04-16T12:58:40.471Z,98268.53
2019-04-16T13:01:25.148Z,98275.62
2019-04-16T13:04:26.234Z,98283.39
2019-04-16T13:07:04.279Z,98273.78
2019-04-16T13:10:14.091Z,98270.84
2019-04-16T13:13:00.589Z,98270.00
2019-04-16T13:15:50.904Z,98274.07
2019-04-16T13:18:45.420Z,98272.92
2019-04-16T13:21:20.785Z,98272.44
2019-04-16T13:23:58.662Z,98264.50
2019-04-16T13:26:37.544Z,98259.52
2019-04-16T13:29:17.073Z,98252.67
2019-04-16T13:31:49.326Z,98246.06
2019-04-16T13:34:23.710Z,98258.44
2019-04-16T13:36:59.613Z,98253.12
2019-04-16T13:39:50.827Z,98241.73
2019-04-16T13:42:23.296Z,98239.92
2019-04-16T13:45:16.639Z,98240.44
2019-04-16T13:47:48.567Z,98246.16
2019-04-16T13:50:40.944Z,98238.55
2019-04-16T13:53:41.417Z,98252.30
2019-04-16T13:56:23.685Z,98248.46
2019-04-16T13:59:04.700Z,98239.00
2019-04-16T14:01:46.061Z,98242.11
2019-04-16T14:04:18.382Z,98244.18
2019-04-16T14:06:51.071Z,98243.77
2019-04-16T14:09:23.800Z,98248.39
2019-04-16T14:11:56.758Z,98245.05
2019-04-16T14:14:29.509Z,98235.77
2019-04-16T14:17:10.004Z,98234.14
2019-04-16T14:19:38.679Z,98239.33
2019-04-16T14:22:12.017Z,98238.21
2019-04-16T14:24:44.704Z,98239.91
2019-04-16T14:27:17.060Z,98243.38
2019-04-16T14:29:50.147Z,98242.66
2019-04-16T14:32:23.238Z,98241.00
2019-04-16T14:34:58.970Z,98243.21
2019-04-16T14:37:32.323Z,98238.09
2019-04-16T14:40:15.402Z,98241.73
2019-04-16T14:42:48.442Z,98240.13
2019-04-16T14:45:53.519Z,98238.92
2019-04-16T14:48:11.092Z,98238.48
2019-04-16T14:50:44.232Z,98235.30
2019-04-16T14:53:42.448Z,98235.89
2019-04-16T14:56:27.167Z,98241.20
2019-04-16T14:59:33.002Z,98242.67
2019-04-16T15:02:11.616Z,98248.34
2019-04-16T15:05:02.282Z,98244.77
2019-04-16T15:07:54.157Z,98249.39
2019-04-16T15:10:45.524Z,98245.80
2019-04-16T15:13:25.360Z,98248.63
2019-04-16T15:16:22.215Z,98242.97
2019-04-16T15:19:11.768Z,98246.92
2019-04-16T15:22:04.361Z,98244.56
2019-04-16T15:24:48.297Z,98253.72
2019-04-16T15:27:49.747Z,98238.09
2019-04-16T15:31:00.654Z,98238.16
2019-04-16T15:33:46.175Z,98234.90
2019-04-16T15:36:23.155Z,98243.71
2019-04-16T15:39:15.851Z,98250.11
2019-04-16T15:42:20.389Z,98249.07
2019-04-16T15:45:02.128Z,98243.74
2019-04-16T15:48:00.271Z,98247.77
2019-04-16T15:51:04.330Z,98258.53
2019-04-16T15:53:44.910Z,98254.36
2019-04-16T15:56:45.212Z,98248.02
2019-04-16T15:59:30.402Z,98253.80
2019-04-16T16:02:15.277Z,98250.30
2019-04-16T16:04:56.146Z,98244.78
2019-04-16T16:07:32.466Z,98252.27
2019-04-16T16:10:23.396Z,98253.43
2019-04-16T16:12:57.301Z,98256.47
2019-04-16T16:15:30.827Z,98253.48
2019-04-16T16:18:04.533Z,98261.46
2019-04-16T16:20:37.660Z,98256.14
2019-04-16T16:23:11.346Z,98256.29
2019-04-16T16:25:44.414Z,98260.50
2019-04-16T16:28:17.207Z,98270.30
2019-04-16T16:30:50.210Z,98263.69
2019-04-16T16:33:23.786Z,98270.28
2019-04-16T16:35:59.389Z,98277.73
2019-04-16T16:38:31.593Z,98269.11
2019-04-16T16:41:04.612Z,98266.53
2019-04-16T16:43:37.798Z,98264.64
2019-04-16T16:46:32.555Z,98267.80
2019-04-16T16:49:06.224Z,98280.89
2019-04-16T16:51:41.233Z,98274.47
2019-04-16T16:54:23.480Z,98274.45
2019-04-16T16:57:15.124Z,98282.22
2019-04-16T17:00:09.932Z,98286.36
2019-04-16T17:03:01.430Z,98289.17
2019-04-16T17:05:38.490Z,98293.44
2019-04-16T17:08:12.272Z,98295.63
2019-04-16T17:10:46.615Z,98299.05
2019-04-16T17:13:21.203Z,98303.01
2019-04-16T17:15:54.954Z,98301.41
2019-04-16T17:18:28.329Z,98293.59
2019-04-16T17:21:01.826Z,98300.80
2019-04-16T17:23:34.592Z,98299.97
2019-04-16T17:26:07.572Z,98304.54
2019-04-16T17:28:43.404Z,98304.78
2019-04-16T17:31:16.213Z,98309.62
2019-04-16T17:33:50.177Z,98304.38
2019-04-16T17:36:23.480Z,98315.56
2019-04-16T17:38:57.422Z,98318.42
2019-04-16T17:41:35.577Z,98325.25
2019-04-16T17:44:27.469Z,98323.52
2019-04-16T17:47:19.518Z,98327.46
2019-04-16T17:50:02.597Z,98335.73
2019-04-16T17:52:59.408Z,98337.68
2019-04-16T17:55:50.359Z,98339.96
2019-04-16T17:58:29.807Z,98345.00
2019-04-16T18:01:22.981Z,98356.92
2019-04-16T18:04:03.961Z,98359.12
2019-04-16T18:06:56.920Z,98361.48
2019-04-16T18:09:47.540Z,98366.98
2019-04-16T18:12:41.538Z,98376.05
2019-04-16T18:15:20.032Z,98376.22
2019-04-16T18:18:05.777Z,98385.14
2019-04-16T18:20:59.359Z,98379.28
2019-04-16T18:23:47.835Z,98384.40
2019-04-16T18:26:40.244Z,98393.17
2019-04-16T18:29:25.180Z,98390.47
2019-04-16T18:32:30.862Z,98393.01
2019-04-16T18:35:18.903Z,98396.97
2019-04-16T18:38:01.554Z,98407.50
2019-04-16T18:40:51.813Z,98404.12
2019-04-16T18:43:34.954Z,98417.09
2019-04-16T18:46:30.909Z,98419.86
2019-04-16T18:49:19.491Z,98428.12
2019-04-16T18:51:53.464Z,98424.30
2019-04-16T18:54:26.794Z,98433.59
2019-04-16T18:57:01.384Z,98441.48
2019-04-16T18:59:35.313Z,98434.28
2019-04-16T19:02:09.756Z,98442.70
2019-04-16T19:04:44.659Z,98443.94
2019-04-16T19:07:18.497Z,98444.67
2019-04-16T19:09:52.571Z,98451.10
2019-04-16T19:12:26.885Z,98456.77
2019-04-16T19:15:01.662Z,98457.78
2019-04-16T19:17:35.693Z,98459.64
2019-04-16T19:20:09.035Z,98465.23
2019-04-16T19:22:41.037Z,98466.19
2019-04-16T19:25:14.116Z,98477.47
2019-04-16T19:27:49.118Z,98477.96
2019-04-16T19:30:23.692Z,98479.68
2019-04-16T19:33:00.564Z,98488.02
2019-04-16T19:35:33.046Z,98488.53
2019-04-16T19:38:07.569Z,98491.73
2019-04-16T19:40:41.353Z,98496.95
2019-04-16T19:43:15.009Z,98491.42
2019-04-16T19:45:48.351Z,98503.42
2019-04-16T19:48:34.703Z,98499.45
2019-04-16T19:50:55.650Z,98498.95
2019-04-16T19:53:29.355Z,98493.28
2019-04-16T19:56:02.888Z,98504.80
2019-04-16T19:58:35.998Z,98504.41
2019-04-16T20:01:11.955Z,98504.05
2019-04-16T20:03:44.951Z,98506.36
2019-04-16T20:06:18.888Z,98504.73
2019-04-16T20:08:51.524Z,98508.41
2019-04-16T20:11:24.654Z,98512.05
2019-04-16T20:14:01.110Z,98512.83
2019-04-16T20:16:32.983Z,98517.35
2019-04-16T20:19:06.993Z,98515.66
2019-04-16T20:21:40.339Z,98519.28
2019-04-16T20:24:12.414Z,98520.94
2019-04-16T20:26:45.611Z,98525.08
2019-04-16T20:29:19.319Z,98529.17
2019-04-16T20:31:53.459Z,98526.61
2019-04-16T20:34:27.465Z,98523.46
2019-04-16T20:37:00.844Z,98528.80
2019-04-16T20:39:33.156Z,98529.16
2019-04-16T20:42:05.948Z,98526.51
2019-04-16T20:44:40.175Z,98523.94
2019-04-16T20:47:14.477Z,98525.50
2019-04-16T20:49:53.761Z,98525.88
2019-04-16T20:52:30.859Z,98528.69
2019-04-16T20:55:03.409Z,98534.25
2019-04-16T20:57:38.946Z,98535.66
2019-04-16T21:00:12.712Z,98531.85
2019-04-16T21:02:48.175Z,98539.34
2019-04-16T21:05:22.716Z,98541.62
2019-04-16T21:07:56.028Z,98539.92
2019-04-16T21:10:29.181Z,98538.53
2019-04-16T21:13:00.588Z,98544.84
2019-04-16T21:15:34.102Z,98545.97
2019-04-16T21:18:11.850Z,98549.53
2019-04-16T21:20:43.872Z,98548.92
2019-04-16T21:23:17.447Z,98548.62
2019-04-16T21:25:51.609Z,98552.53
2019-04-16T21:28:47.537Z,98556.65
2019-04-16T21:31:24.946Z,98559.00
2019-04-16T21:34:07.815Z,98560.63
2019-04-16T21:36:46.812Z,98561.45
2019-04-16T21:39:33.730Z,98560.28
2019-04-16T21:42:07.310Z,98568.44
2019-04-16T21:44:41.403Z,98565.96
2019-04-16T21:47:16.622Z,98568.41
2019-04-16T21:49:50.790Z,98564.36
2019-04-16T21:52:24.715Z,98569.67
2019-04-16T21:55:02.465Z,98566.32
2019-04-16T21:57:33.543Z,98573.00
2019-04-16T22:00:14.573Z,98573.27
2019-04-16T22:02:48.907Z,98574.23
2019-04-16T22:05:22.712Z,98579.99
2019-04-16T22:07:58.240Z,98578.44
2019-04-16T22:10:31.946Z,98582.02
2019-04-16T22:13:03.327Z,98581.31
2019-04-16T22:15:37.803Z,98584.83
2019-04-16T22:18:11.262Z,98584.80
2019-04-16T22:20:42.901Z,98584.09
2019-04-16T22:23:18.993Z,98588.89
2019-04-16T22:25:50.633Z,98594.05
2019-04-16T22:28:24.996Z,98592.58
2019-04-16T22:30:58.118Z,98600.70
2019-04-16T22:33:31.473Z,98599.91
2019-04-16T22:36:05.923Z,98600.03
2019-04-16T22:38:40.917Z,98602.88
2019-04-16T22:41:29.526Z,98604.20
2019-04-16T22:44:13.879Z,98608.31
2019-04-16T22:46:50.616Z,98600.17
2019-04-16T22:49:24.155Z,98609.13
2019-04-16T22:51:58.225Z,98607.09
2019-04-16T22:54:31.942Z,98609.70
2019-04-16T22:57:07.291Z,98610.77
2019-04-16T22:59:40.647Z,98620.56
2019-04-16T23:02:32.397Z,98619.45
2019-04-16T23:05:05.919Z,98622.25
2019-04-16T23:07:40.360Z,98619.66
2019-04-16T23:10:14.359Z,98620.66
2019-04-16T23:12:47.435Z,98625.32
2019-04-16T23:15:20.973Z,98630.19
2019-04-16T23:17:55.537Z,98624.11
2019-04-16T23:20:30.067Z,98632.00
2019-04-16T23:23:04.466Z,98637.33
2019-04-16T23:25:38.247Z,98636.20
2019-04-16T23:28:11.859Z,98636.56
2019-04-16T23:30:48.012Z,98638.53
2019-04-16T23:33:20.357Z,98640.39
2019-04-16T23:35:54.049Z,98638.63
2019-04-16T23:38:31.209Z,98640.81
2019-04-16T23:41:02.979Z,98645.10
2019-04-16T23:43:54.374Z,98646.06
2019-04-16T23:46:43.979Z,98650.00
2019-04-16T23:49:44.940Z,98650.97
2019-04-16T23:52:31.895Z,98653.12
2019-04-16T23:55:06.596Z,98654.02
2019-04-16T23:58:00.881Z,98647.20
